Time;durP1;ratioP1;P1;durP2;ratioP2;P2;SDS_P1;SDS_P2;PMS_P1;PMS_P2;Temp;Humidity;BMP_temperature;BMP_pressure;BME280_temperature;BME280_humidity;BME280_pressure;Samples;Min_cycle;Max_cycle;Signal;HPM_P1;HPM_P2
2022/11/08 00:02:32;;;;;;;25.48;11.50;;;;;;;13.96;64.71;98517.97;4487204;32;20084;-83
2022/11/08 00:16:02;;;;;;;27.17;10.40;;;;;;;14.29;61.10;98514.63;4487217;32;20447;-83
2022/11/08 00:18:28;;;;;;;26.17;11.48;;;;;;;13.92;62.21;98513.81;4487256;31;20080;-83
2022/11/08 00:21:00;;;;;;;28.30;12.27;;;;;;;13.26;63.67;98516.13;4487322;31;20107;-83
2022/11/08 00:23:26;;;;;;;28.00;12.43;;;;;;;13.32;64.79;98508.91;4487058;31;20111;-83
2022/11/08 00:25:54;;;;;;;26.45;11.63;;;;;;;12.81;68.13;98519.84;4487045;31;20144;-83
2022/11/08 00:28:21;;;;;;;27.75;11.98;;;;;;;13.27;66.44;98520.38;4487084;31;20088;-83
2022/11/08 00:30:47;;;;;;;25.58;11.50;;;;;;;13.85;63.19;98513.31;4486840;31;20099;-83
2022/11/08 00:33:14;;;;;;;28.20;12.15;;;;;;;13.72;62.21;98508.78;4487279;31;20097;-83
2022/11/08 00:35:41;;;;;;;26.98;12.30;;;;;;;14.07;61.69;98513.09;4487080;31;20121;-82
2022/11/08 00:38:08;;;;;;;27.60;10.75;;;;;;;15.12;58.43;98514.63;4486976;31;20099;-83
2022/11/08 00:40:35;;;;;;;26.83;11.98;;;;;;;15.05;59.59;98508.06;4487154;31;20439;-82
2022/11/08 00:43:02;;;;;;;26.90;11.93;;;;;;;14.55;61.62;98508.97;4487217;31;20108;-82
2022/11/08 00:45:29;;;;;;;28.87;12.10;;;;;;;14.39;62.60;98508.03;4486741;31;20100;-82
2022/11/08 00:47:56;;;;;;;24.87;11.57;;;;;;;14.53;62.46;98507.37;4486978;31;20222;-82
2022/11/08 00:50:23;;;;;;;25.70;11.00;;;;;;;14.45;62.71;98507.75;4486968;31;20099;-82
2022/11/08 00:52:49;;;;;;;29.27;12.90;;;;;;;13.83;65.13;98506.53;4485632;32;20447;-83
2022/11/08 00:55:16;;;;;;;;;;;;;;;13.58;67.80;98505.09;4487204;31;20096;-82
2022/11/08 00:57:43;;;;;;;25.88;11.35;;;;;;;13.68;68.79;98505.50;4486995;32;19987;-82
2022/11/08 01:00:26;;;;;;;28.38;11.93;;;;;;;13.84;68.55;98501.25;4486705;31;20084;-83
2022/11/08 01:03:17;;;;;;;28.48;11.45;;;;;;;13.28;71.29;98509.09;4486939;31;20092;-82
2022/11/08 01:05:40;;;;;;;25.88;11.77;;;;;;;13.44;70.01;98504.91;4486317;31;20462;-83
2022/11/08 01:08:08;;;;;;;26.17;11.02;;;;;;;13.41;69.07;98517.19;4486930;31;20088;-82
2022/11/08 01:10:35;;;;;;;28.70;11.88;;;;;;;13.36;68.60;98506.16;4485582;32;20545;-82
2022/11/08 01:13:02;;;;;;;26.83;11.45;;;;;;;13.38;68.04;98512.97;4488307;31;20423;-83
2022/11/08 01:15:34;;;;;;;25.60;10.85;;;;;;;13.49;66.36;98505.50;4488501;31;20481;-82
2022/11/08 01:18:02;;;;;;;25.27;10.73;;;;;;;13.00;68.59;98512.94;4488720;31;20084;-82
2022/11/08 01:20:29;;;;;;;26.33;10.82;;;;;;;12.41;70.65;98510.38;4488479;31;20088;-83
2022/11/08 01:22:56;;;;;;;24.37;10.65;;;;;;;12.85;68.14;98502.41;4488609;31;20701;-82
2022/11/08 01:25:23;;;;;;;25.00;11.20;;;;;;;13.24;64.94;98498.06;4488378;31;20092;-82
2022/11/08 01:27:50;;;;;;;24.27;10.25;;;;;;;13.28;64.12;98501.34;4488260;31;20498;-83
2022/11/08 01:30:17;;;;;;;24.48;10.38;;;;;;;13.09;64.69;98501.34;4488557;31;20077;-82
2022/11/08 01:32:43;;;;;;;23.62;10.75;;;;;;;13.07;64.12;98494.53;4487282;32;20363;-82
2022/11/08 01:35:10;;;;;;;24.17;10.00;;;;;;;13.17;63.81;98486.25;4488186;31;20152;-82
2022/11/08 01:37:37;;;;;;;;;;;;;;;13.29;62.42;98485.75;4487523;32;20084;-82
2022/11/08 01:40:04;;;;;;;26.23;10.02;;;;;;;13.52;61.09;98484.66;4488606;31;19964;-82
2022/11/08 01:42:32;;;;;;;25.48;10.55;;;;;;;13.20;62.13;98480.16;4488215;31;20141;-83
2022/11/08 01:45:10;;;;;;;23.02;10.02;;;;;;;13.32;61.04;98474.38;4487160;32;20104;-82
2022/11/08 01:47:37;;;;;;;24.55;9.95;;;;;;;13.15;61.61;98472.53;4488117;31;20081;-83
2022/11/08 01:50:11;;;;;;;;;;;;;;;13.55;60.68;98476.72;4488775;31;20076;-82
2022/11/08 01:52:50;;;;;;;22.73;9.25;;;;;;;13.38;60.85;98474.06;4487389;32;19994;-82
2022/11/08 01:55:34;;;;;;;23.23;9.57;;;;;;;12.99;61.15;98469.81;4487933;31;20168;-83
2022/11/08 01:58:07;;;;;;;21.58;9.15;;;;;;;12.76;61.11;98480.38;4487208;32;20088;-82
2022/11/08 02:00:36;;;;;;;23.17;10.60;;;;;;;12.39;62.67;98470.78;4488510;31;20141;-82
2022/11/08 02:03:04;;;;;;;23.40;10.45;;;;;;;12.38;62.64;98474.28;4486800;32;20097;-83
2022/11/08 02:05:32;;;;;;;23.75;10.48;;;;;;;12.38;63.25;98474.28;4488182;31;20096;-82
2022/11/08 02:08:02;;;;;;;24.48;10.02;;;;;;;12.56;62.60;98473.50;4487216;32;20088;-82
2022/11/08 02:10:33;;;;;;;26.20;11.15;;;;;;;12.58;63.02;98469.09;4487795;31;20133;-83
2022/11/08 02:13:01;;;;;;;22.20;10.25;;;;;;;12.72;62.96;98460.69;4488331;31;20115;-83
2022/11/08 02:15:31;;;;;;;26.42;11.12;;;;;;;12.59;63.98;98456.97;4487043;32;20112;-82
2022/11/08 02:17:58;;;;;;;25.37;10.70;;;;;;;13.05;61.95;98453.16;4488036;31;20088;-83
2022/11/08 02:20:26;;;;;;;26.52;11.15;;;;;;;13.06;61.88;98459.16;4487048;32;20552;-82
2022/11/08 02:22:58;;;;;;;24.25;10.02;;;;;;;12.92;61.35;98458.06;4487944;31;20093;-83
2022/11/08 02:25:25;;;;;;;25.17;10.43;;;;;;;12.96;60.58;98463.94;4487963;31;20175;-82
2022/11/08 02:27:52;;;;;;;21.62;9.45;;;;;;;12.82;61.46;98459.38;4486938;32;20084;-82
2022/11/08 02:30:19;;;;;;;22.87;10.27;;;;;;;12.78;61.72;98452.66;4487933;32;20435;-83
2022/11/08 02:32:46;;;;;;;23.08;10.18;;;;;;;12.97;60.85;98465.59;4487980;31;20101;-82
2022/11/08 02:35:14;;;;;;;;;;;;;;;12.69;62.69;98466.88;4488342;31;20097;-82
2022/11/08 02:37:41;;;;;;;25.55;10.60;;;;;;;12.56;64.09;98464.91;4486578;32;19980;-83
2022/11/08 02:40:09;;;;;;;25.02;10.00;;;;;;;12.75;63.40;98471.75;4488103;31;20081;-82
2022/11/08 02:42:38;;;;;;;28.52;10.40;;;;;;;12.43;64.23;98467.16;4488099;31;20112;-82
2022/11/08 02:45:06;;;;;;;23.02;10.18;;;;;;;12.23;64.34;98472.34;4487592;31;20367;-82
2022/11/08 02:47:33;;;;;;;28.35;10.55;;;;;;;12.30;64.22;98478.94;4487963;31;20103;-82
2022/11/08 02:50:00;;;;;;;24.95;10.30;;;;;;;12.22;63.94;98475.84;4487930;31;20526;-83
2022/11/08 02:52:27;;;;;;;23.67;10.23;;;;;;;12.16;63.92;98471.78;4487559;31;20088;-83
2022/11/08 02:54:54;;;;;;;24.40;10.52;;;;;;;12.67;61.61;98476.44;4488036;31;20463;-82
2022/11/08 02:57:21;;;;;;;31.62;10.50;;;;;;;12.94;59.62;98479.53;4486748;32;20084;-82
2022/11/08 02:59:48;;;;;;;24.25;9.93;;;;;;;12.74;60.00;98475.25;4487623;31;20103;-83
2022/11/08 03:02:15;;;;;;;21.62;9.27;;;;;;;12.98;58.02;98475.09;4488037;32;20134;-83
2022/11/08 03:04:42;;;;;;;22.05;9.02;;;;;;;13.11;56.29;98468.41;4487390;31;20120;-84
2022/11/08 03:07:08;;;;;;;;;;;;;;;12.52;58.86;98479.69;4488266;31;20080;-82
2022/11/08 03:09:35;;;;;;;20.92;8.93;;;;;;;12.35;59.32;98474.44;4487864;31;19964;-82
2022/11/08 03:12:02;;;;;;;25.85;9.98;;;;;;;12.55;59.21;98470.97;4486462;32;20101;-83
2022/11/08 03:14:29;;;;;;;25.77;10.77;;;;;;;12.71;59.12;98471.97;4487738;31;20112;-82
2022/11/08 03:16:56;;;;;;;;;;;;;;;12.56;60.01;98472.66;4487997;32;20106;-82
2022/11/08 03:19:23;;;;;;;21.35;8.40;;;;;;;12.52;60.78;98477.13;4487590;31;20279;-83
2022/11/08 03:21:49;;;;;;;;;;;;;;;12.57;60.30;98476.94;4488128;31;20435;-82
2022/11/08 03:24:16;;;;;;;24.52;9.32;;;;;;;12.36;61.05;98474.38;4487850;31;20006;-82
2022/11/08 03:26:43;;;;;;;23.80;8.85;;;;;;;12.22;61.49;98475.84;4487316;31;20097;-83
2022/11/08 03:29:10;;;;;;;23.33;9.02;;;;;;;12.08;61.47;98481.59;4487722;31;20379;-82
2022/11/08 03:31:36;;;;;;;;;;;;;;;11.94;62.19;98483.94;4487810;31;20120;-82
2022/11/08 03:34:03;;;;;;;23.25;9.80;;;;;;;12.12;61.93;98483.16;4487001;31;19975;-83
2022/11/08 03:36:30;;;;;;;;;;;;;;;12.01;62.67;98486.19;4487759;31;20092;-82
2022/11/08 03:38:57;;;;;;;21.62;8.45;;;;;;;12.01;63.94;98480.16;4487871;31;20282;-82
2022/11/08 03:41:24;;;;;;;;;;;;;;;12.21;63.35;98485.34;4487520;31;20076;-83
2022/11/08 03:43:50;;;;;;;22.23;9.27;;;;;;;12.23;63.73;98486.16;4487812;31;20028;-82
2022/11/08 03:46:17;;;;;;;23.30;10.05;;;;;;;12.32;63.80;98483.16;4487417;31;20120;-82
2022/11/08 03:48:44;;;;;;;23.73;10.63;;;;;;;12.39;64.54;98481.16;4486305;32;20141;-83
2022/11/08 03:51:11;;;;;;;;;;;;;;;12.60;64.05;98479.38;4487959;31;20085;-82
2022/11/08 03:53:38;;;;;;;24.97;10.17;;;;;;;12.52;64.88;98478.84;4487748;32;19998;-82
2022/11/08 03:56:05;;;;;;;;;;;;;;;12.45;65.89;98473.12;4487433;31;20084;-82
2022/11/08 03:58:32;;;;;;;22.10;9.60;;;;;;;12.08;66.14;98479.84;4487688;31;19968;-82
2022/11/08 04:01:03;;;;;;;22.48;10.02;;;;;;;12.26;66.72;98474.81;4487285;31;20088;-83
2022/11/08 04:03:30;;;;;;;24.15;10.75;;;;;;;12.61;65.78;98470.69;4487680;31;20108;-82
2022/11/08 04:06:01;;;;;;;23.52;10.40;;;;;;;12.05;66.62;98469.66;4487125;31;20160;-83
2022/11/08 04:08:28;;;;;;;20.30;9.10;;;;;;;11.71;67.27;98462.41;4487265;31;20080;-83
2022/11/08 04:10:56;;;;;;;23.55;9.90;;;;;;;12.96;63.54;98462.19;4487431;31;20111;-83
2022/11/08 04:16:09;;;;;;;23.48;9.32;;;;;;;12.08;66.38;98451.41;4487024;31;20084;-83
2022/11/08 04:21:28;;;;;;;22.65;9.38;;;;;;;10.39;72.59;98445.09;4487547;31;20097;-82
2022/11/08 04:23:55;;;;;;;22.55;9.52;;;;;;;9.80;75.33;98445.38;4487168;31;20466;-83
2022/11/08 04:26:22;;;;;;;;;;;;;;;10.08;73.53;98450.44;4487382;31;20092;-82
2022/11/08 04:28:49;;;;;;;20.62;8.68;;;;;;;10.18;73.61;98444.06;4487373;32;19982;-82
2022/11/08 04:31:18;;;;;;;20.40;9.43;;;;;;;9.41;76.14;98443.19;4486612;31;20354;-83
2022/11/08 04:33:45;;;;;;;25.80;10.30;;;;;;;9.91;75.58;98439.88;4486203;32;20104;-82
2022/11/08 04:36:14;;;;;;;22.05;9.23;;;;;;;9.52;79.89;98437.72;4486733;31;20107;-83
2022/11/08 04:38:41;;;;;;;24.05;9.98;;;;;;;10.77;74.64;98440.28;4487326;31;20076;-82
2022/11/08 04:41:13;;;;;;;24.58;9.57;;;;;;;11.53;73.82;98435.56;4487248;31;20119;-82
2022/11/08 04:43:40;;;;;;;21.60;9.30;;;;;;;10.85;74.36;98433.94;4486862;31;20089;-83
2022/11/08 04:46:12;;;;;;;22.25;8.95;;;;;;;12.01;71.30;98438.78;4485788;31;20092;-82
2022/11/08 04:48:40;;;;;;;22.77;8.45;;;;;;;11.78;71.16;98435.38;4487197;31;20076;-82
2022/11/08 04:51:10;;;;;;;22.90;9.50;;;;;;;11.23;75.42;98441.94;4486700;31;20465;-83
2022/11/08 04:53:37;;;;;;;23.15;9.20;;;;;;;11.53;73.51;98437.31;4487188;31;20100;-82
2022/11/08 04:56:07;;;;;;;21.52;9.05;;;;;;;10.74;75.27;98446.41;4486784;31;20363;-82
2022/11/08 04:58:39;;;;;;;20.80;9.23;;;;;;;11.18;70.30;98443.88;4486701;31;20079;-83
2022/11/08 05:01:07;;;;;;;21.52;9.45;;;;;;;9.75;76.30;98437.78;4487104;32;20722;-82
2022/11/08 05:03:35;;;;;;;21.05;9.07;;;;;;;9.98;75.56;98437.00;4485815;32;20554;-83
2022/11/08 05:06:10;;;;;;;22.62;9.73;;;;;;;10.96;73.42;98436.97;4486377;31;20455;-82
2022/11/08 05:08:37;;;;;;;19.98;7.68;;;;;;;11.06;71.92;98434.88;4486825;32;20110;-82
2022/11/08 05:11:09;;;;;;;23.98;9.80;;;;;;;11.08;72.05;98430.47;4486471;31;20088;-83
2022/11/08 05:13:37;;;;;;;25.52;9.57;;;;;;;10.28;75.84;98424.00;4485709;32;20100;-83
2022/11/08 05:16:06;;;;;;;23.10;9.98;;;;;;;8.52;86.28;98437.31;4485315;32;20096;-82
2022/11/08 05:18:33;;;;;;;26.77;11.15;;;;;;;8.11;87.57;98431.53;4485325;32;20098;-83
2022/11/08 05:23:48;;;;;;;26.12;9.10;;;;;;;9.33;81.40;98432.28;4486768;31;20145;-82
2022/11/08 05:26:16;;;;;;;28.33;10.57;;;;;;;10.51;79.11;98444.63;4484950;32;20092;-82
2022/11/08 05:28:43;;;;;;;20.75;8.82;;;;;;;11.86;74.64;98448.88;4486567;32;20192;-82
2022/11/08 05:31:10;;;;;;;22.52;9.35;;;;;;;11.53;76.22;98434.72;4486236;31;20110;-82
2022/11/08 05:33:37;;;;;;;22.35;8.82;;;;;;;11.85;75.38;98438.59;4486269;31;20093;-82
2022/11/08 05:36:06;;;;;;;23.90;10.02;;;;;;;11.39;77.90;98443.03;4486293;31;20219;-82
2022/11/08 05:38:33;;;;;;;23.48;9.95;;;;;;;11.10;79.74;98446.75;4486563;31;20423;-82
2022/11/08 05:41:11;;;;;;;21.12;9.07;;;;;;;10.99;80.89;98436.00;4486117;31;20093;-83
2022/11/08 05:43:38;;;;;;;23.42;9.63;;;;;;;11.14;80.07;98432.81;4486449;31;20439;-82
2022/11/08 05:46:06;;;;;;;22.17;9.00;;;;;;;11.05;80.89;98440.91;4485839;31;20106;-83
2022/11/08 05:48:33;;;;;;;25.17;9.68;;;;;;;10.96;81.24;98439.53;4486344;32;20160;-82
2022/11/08 05:51:00;;;;;;;23.70;9.98;;;;;;;10.53;83.41;98439.44;4485015;32;20149;-82
2022/11/08 05:53:27;;;;;;;23.08;9.75;;;;;;;10.90;81.76;98442.34;4486042;31;20092;-83
2022/11/08 05:55:58;;;;;;;22.10;8.90;;;;;;;11.01;81.28;98429.03;4485900;31;20107;-82
2022/11/08 05:58:26;;;;;;;21.37;9.15;;;;;;;11.29;80.09;98429.63;4488001;31;20064;-82
2022/11/08 06:01:03;;;;;;;20.23;8.50;;;;;;;11.22;80.51;98442.84;4488233;31;20092;-83
2022/11/08 06:03:30;;;;;;;20.08;8.38;;;;;;;11.23;80.46;98435.03;4488390;31;20158;-82
2022/11/08 06:06:04;;;;;;;22.65;8.57;;;;;;;11.15;80.74;98434.47;4486908;32;20084;-82
2022/11/08 06:08:31;;;;;;;21.08;8.45;;;;;;;11.20;80.03;98437.75;4488238;31;20076;-83
2022/11/08 06:11:09;;;;;;;20.25;8.57;;;;;;;11.21;80.72;98429.09;4488098;31;20499;-82
2022/11/08 06:13:36;;;;;;;18.20;8.25;;;;;;;11.28;80.25;98434.88;4488403;31;20466;-82
2022/11/08 06:16:06;;;;;;;22.80;8.60;;;;;;;12.02;77.00;98446.50;4487747;31;20089;-82
2022/11/08 06:18:33;;;;;;;19.40;7.97;;;;;;;11.53;77.38;98438.16;4488352;31;20596;-82
2022/11/08 06:21:01;;;;;;;19.85;8.40;;;;;;;12.42;74.46;98449.94;4487121;32;20126;-82
2022/11/08 06:23:28;;;;;;;21.58;8.45;;;;;;;12.31;73.97;98450.41;4486742;32;20476;-83
2022/11/08 06:25:55;;;;;;;18.77;7.93;;;;;;;12.62;72.89;98456.84;4488018;31;20089;-82
2022/11/08 06:28:23;;;;;;;21.00;8.45;;;;;;;12.86;72.25;98460.06;4487946;32;20076;-83
2022/11/08 06:30:50;;;;;;;22.33;8.40;;;;;;;12.94;72.48;98456.22;4487980;31;20100;-83
2022/11/08 06:33:18;;;;;;;18.20;7.05;;;;;;;13.50;70.55;98465.72;4488198;31;20099;-82
2022/11/08 06:35:46;;;;;;;18.17;7.68;;;;;;;13.65;70.03;98456.38;4487592;31;20104;-83
2022/11/08 06:38:13;;;;;;;17.58;7.25;;;;;;;14.29;67.96;98462.72;4488251;31;20076;-82
2022/11/08 06:40:40;;;;;;;18.95;7.57;;;;;;;14.16;68.10;98462.50;4488110;32;20080;-83
2022/11/08 06:43:09;;;;;;;21.15;8.65;;;;;;;14.73;65.54;98463.84;4487692;31;20449;-83
2022/11/08 06:45:43;;;;;;;17.10;7.77;;;;;;;15.74;63.03;98463.56;4486839;32;20183;-83
2022/11/08 06:48:10;;;;;;;17.33;7.32;;;;;;;16.71;59.22;98471.75;4488073;31;20152;-83
2022/11/08 06:50:37;;;;;;;17.37;7.37;;;;;;;17.64;54.70;98456.25;4487708;31;20088;-83
2022/11/08 06:53:05;;;;;;;16.73;6.93;;;;;;;18.25;52.59;98467.06;4487953;32;20107;-83
2022/11/08 06:55:34;;;;;;;15.45;6.90;;;;;;;18.26;52.57;98471.34;4486683;32;20106;-83
2022/11/08 06:58:01;;;;;;;17.02;7.20;;;;;;;18.70;51.05;98475.34;4486586;32;20492;-83
2022/11/08 07:00:29;;;;;;;16.05;7.37;;;;;;;19.31;48.83;98473.66;4486566;32;20119;-82
2022/11/08 07:02:59;;;;;;;17.25;6.60;;;;;;;19.23;49.38;98474.19;4486754;32;20140;-82
2022/11/08 07:05:27;;;;;;;16.42;7.30;;;;;;;19.07;50.36;98481.47;4487385;31;20368;-82
2022/11/08 07:07:56;;;;;;;15.82;7.47;;;;;;;18.58;51.27;98474.38;4487920;31;20423;-82
2022/11/08 07:10:25;;;;;;;15.77;6.80;;;;;;;18.96;50.98;98477.00;4485526;32;20225;-81
2022/11/08 07:13:05;;;;;;;21.87;7.93;;;;;;;19.34;49.39;98479.50;4486723;32;20104;-81
2022/11/08 07:15:33;;;;;;;17.33;7.87;;;;;;;19.57;49.42;98477.91;4487457;31;20088;-79
2022/11/08 07:18:08;;;;;;;15.32;6.85;;;;;;;20.74;47.27;98489.22;4487600;31;20118;-79
2022/11/08 07:20:35;;;;;;;15.57;7.57;;;;;;;21.55;45.05;98477.56;4487777;31;20473;-81
2022/11/08 07:23:04;;;;;;;15.48;7.70;;;;;;;21.93;43.29;98477.06;4486645;32;20100;-80
2022/11/08 07:25:31;;;;;;;14.65;6.70;;;;;;;22.08;42.72;98474.16;4487212;31;20159;-80
2022/11/08 07:28:01;;;;;;;13.65;6.35;;;;;;;21.65;43.88;98480.28;4487740;31;20072;-80
2022/11/08 07:30:28;;;;;;;16.27;7.70;;;;;;;21.59;43.84;98483.44;4487642;31;20107;-82
2022/11/08 07:32:56;;;;;;;15.85;7.35;;;;;;;20.89;45.92;98488.97;4486940;32;20657;-83
2022/11/08 07:39:03;;;;;;;18.35;7.95;;;;;;;20.85;46.87;98484.94;4505282;31;20099;-83
2022/11/08 07:41:32;;;;;;;18.25;7.40;;;;;;;21.52;45.26;98488.31;4505664;31;20127;-85
2022/11/08 07:43:59;;;;;;;16.77;7.43;;;;;;;21.58;45.67;98482.56;4500739;31;20087;-84
2022/11/08 07:46:26;;;;;;;14.60;6.97;;;;;;;21.76;44.92;98489.91;4497494;31;20103;-85
2022/11/08 07:48:53;;;;;;;13.95;6.87;;;;;;;20.96;46.73;98487.56;4504637;31;20522;-85
2022/11/08 07:51:20;;;;;;;14.30;6.28;;;;;;;21.90;44.81;98482.59;4505858;31;20107;-84
2022/11/08 07:53:46;;;;;;;14.80;7.18;;;;;;;21.83;44.55;98488.47;4493550;31;20104;-83
2022/11/08 07:56:13;;;;;;;15.35;6.50;;;;;;;21.37;46.06;98485.16;4494591;31;20154;-84
2022/11/08 07:58:40;;;;;;;14.07;6.57;;;;;;;21.30;47.19;98491.84;4492634;31;20111;-83
2022/11/08 08:01:07;;;;;;;14.23;6.97;;;;;;;20.96;46.88;98496.25;4488018;31;20080;-82
2022/11/08 08:03:34;;;;;;;14.07;6.87;;;;;;;21.27;46.77;98502.59;4487941;31;20088;-82
2022/11/08 08:06:01;;;;;;;14.77;7.10;;;;;;;21.15;47.19;98506.13;4487009;31;20088;-82
2022/11/08 08:08:29;;;;;;;15.55;6.85;;;;;;;21.54;46.03;98496.91;4487094;31;20097;-82
2022/11/08 08:11:00;;;;;;;14.77;6.95;;;;;;;21.19;46.41;98504.94;4487309;31;20437;-82
2022/11/08 08:13:27;;;;;;;15.63;7.20;;;;;;;20.60;47.59;98505.16;4495689;31;20452;-82
2022/11/08 08:15:59;;;;;;;14.82;7.43;;;;;;;20.06;48.60;98505.72;4502858;31;20131;-83
2022/11/08 08:18:27;;;;;;;17.85;7.62;;;;;;;21.45;45.88;98508.13;4492187;31;20084;-82
2022/11/08 08:20:54;;;;;;;15.52;7.40;;;;;;;21.20;47.46;98516.25;4487575;31;20089;-82
2022/11/08 08:23:21;;;;;;;14.75;7.37;;;;;;;21.65;45.36;98517.03;4488781;31;20111;-82
2022/11/08 08:25:48;;;;;;;16.48;7.30;;;;;;;21.75;45.81;98506.63;4487118;31;20465;-82
2022/11/08 08:28:15;;;;;;;15.00;7.20;;;;;;;22.61;44.53;98505.63;4486957;31;20107;-82
2022/11/08 08:30:42;;;;;;;14.07;6.80;;;;;;;22.72;43.19;98501.13;4486915;31;20495;-82
2022/11/08 08:33:14;;;;;;;13.77;6.80;;;;;;;21.49;46.64;98496.47;4487101;31;20118;-85
2022/11/08 08:35:55;;;;;;;13.85;6.60;;;;;;;21.57;45.62;98494.03;4489683;31;20507;-82
2022/11/08 08:38:22;;;;;;;13.88;6.40;;;;;;;21.77;44.92;98496.84;4487221;31;20642;-82
2022/11/08 08:40:49;;;;;;;14.25;6.37;;;;;;;22.04;45.46;98494.59;4487100;31;20106;-82
2022/11/08 08:43:16;;;;;;;13.77;6.05;;;;;;;22.44;43.43;98496.56;4486837;31;20106;-82
2022/11/08 08:45:44;;;;;;;14.18;6.80;;;;;;;22.00;43.79;98490.53;4486946;31;20096;-82
2022/11/08 08:48:10;;;;;;;13.23;5.93;;;;;;;22.09;44.10;98487.16;4487247;31;20076;-82
2022/11/08 08:50:37;;;;;;;13.80;6.25;;;;;;;21.87;45.47;98489.88;4490551;31;20107;-83
2022/11/08 08:53:05;;;;;;;14.55;6.45;;;;;;;21.52;46.15;98490.13;4501300;31;20064;-85
2022/11/08 08:55:35;;;;;;;13.88;6.72;;;;;;;21.42;46.98;98497.88;4488888;31;20092;-83
2022/11/08 08:58:02;;;;;;;12.55;6.30;;;;;;;21.92;45.98;98498.22;4487512;32;20200;-84
2022/11/08 09:00:29;;;;;;;14.30;6.47;;;;;;;21.08;47.16;98499.69;4487717;31;20097;-84
2022/11/08 09:03:16;;;;;;;12.43;6.37;;;;;;;19.95;49.41;98495.19;4486409;32;20092;-83
2022/11/08 09:05:45;;;;;;;13.98;6.32;;;;;;;21.58;46.24;98500.09;4486957;32;20172;-84
2022/11/08 09:08:13;;;;;;;12.55;5.65;;;;;;;21.75;45.54;98504.00;4488862;31;20084;-83
2022/11/08 09:10:40;;;;;;;14.15;5.68;;;;;;;21.24;45.71;98509.81;4487013;31;20093;-83
2022/11/08 09:13:07;;;;;;;15.65;6.30;;;;;;;20.74;46.27;98504.12;4487522;32;20101;-83
2022/11/08 09:15:34;;;;;;;14.38;6.35;;;;;;;19.84;49.32;98509.06;4485623;32;20152;-84
2022/11/08 09:18:01;;;;;;;14.07;6.60;;;;;;;19.06;50.59;98509.41;4492461;31;20131;-83
2022/11/08 09:20:29;;;;;;;14.50;6.62;;;;;;;19.32;50.48;98507.56;4488691;31;20112;-83
2022/11/08 09:23:01;;;;;;;14.60;6.90;;;;;;;19.50;50.38;98507.19;4495568;31;20163;-82
2022/11/08 09:25:28;;;;;;;14.18;6.70;;;;;;;20.08;48.35;98508.22;4502054;31;20084;-82
2022/11/08 09:27:54;;;;;;;16.17;6.72;;;;;;;18.64;52.05;98505.38;4501764;31;20083;-82
2022/11/08 09:30:21;;;;;;;14.35;6.60;;;;;;;18.43;53.01;98502.41;4493149;31;20139;-83
2022/11/08 09:32:52;;;;;;;14.15;6.75;;;;;;;18.48;52.90;98499.47;4502718;31;20118;-83
2022/11/08 09:35:27;;;;;;;14.82;7.28;;;;;;;18.00;54.23;98499.19;4504230;31;20106;-82
2022/11/08 09:37:54;;;;;;;14.18;6.87;;;;;;;17.77;55.38;98499.87;4503565;31;20148;-83
2022/11/08 09:40:25;;;;;;;17.10;7.32;;;;;;;18.74;53.10;98490.72;4504271;31;20461;-83
2022/11/08 09:43:29;;;;;;;16.12;6.78;;;;;;;18.69;54.39;98498.03;4503271;31;20104;-83
2022/11/08 09:45:56;;;;;;;16.87;7.70;;;;;;;18.73;54.86;98491.66;4503820;31;20454;-83
2022/11/08 09:48:29;;;;;;;18.75;8.68;;;;;;;19.43;51.98;98491.09;4504165;31;20075;-83
2022/11/08 09:50:58;;;;;;;18.83;7.80;;;;;;;19.47;52.40;98483.87;4504196;31;20386;-83
2022/11/08 09:53:48;;;;;;;18.33;8.20;;;;;;;19.70;52.25;98487.47;4503685;31;20088;-83
2022/11/08 09:56:24;;;;;;;16.02;6.97;;;;;;;19.53;51.59;98483.41;4502691;31;20537;-82
2022/11/08 09:59:00;;;;;;;15.30;7.32;;;;;;;19.34;51.45;98491.75;4502567;31;20102;-82
2022/11/08 10:01:35;;;;;;;14.55;6.70;;;;;;;19.50;51.02;98486.25;4490779;31;20794;-82
2022/11/08 10:04:08;;;;;;;14.20;7.12;;;;;;;20.02;49.90;98492.97;4504047;31;20110;-83
2022/11/08 10:06:45;;;;;;;13.48;6.18;;;;;;;19.72;51.49;98491.66;4502529;31;20092;-83
2022/11/08 10:09:33;;;;;;;14.52;6.32;;;;;;;19.56;50.50;98481.44;4502829;31;20114;-83
2022/11/08 10:12:16;;;;;;;14.20;6.90;;;;;;;19.51;50.69;98486.16;4502860;31;20096;-82
2022/11/08 10:15:18;;;;;;;14.13;6.37;;;;;;;19.68;50.97;98479.75;4504475;31;20143;-81
2022/11/08 10:18:06;;;;;;;13.45;6.43;;;;;;;20.46;49.76;98481.78;4504616;31;20110;-82
2022/11/08 10:20:39;;;;;;;14.90;6.43;;;;;;;20.20;49.61;98473.22;4503739;31;20072;-82
2022/11/08 10:23:12;;;;;;;14.77;6.90;;;;;;;19.84;50.26;98467.19;4503910;31;20437;-82
2022/11/08 10:25:45;;;;;;;14.93;7.30;;;;;;;20.50;49.97;98470.09;4502687;31;20126;-81
2022/11/08 10:28:15;;;;;;;16.27;7.78;;;;;;;19.54;51.45;98472.84;4502173;31;20102;-82
2022/11/08 10:30:46;;;;;;;16.50;7.75;;;;;;;19.16;53.63;98466.91;4505113;31;20084;-81
2022/11/08 10:33:28;;;;;;;17.35;7.62;;;;;;;18.86;53.24;98452.44;4502570;31;20104;-81
2022/11/08 10:36:02;;;;;;;16.48;7.68;;;;;;;18.42;55.49;98461.53;4503869;31;20110;-82
2022/11/08 10:38:41;;;;;;;15.38;7.45;;;;;;;19.40;53.57;98453.84;4502758;31;20096;-81
2022/11/08 10:41:32;;;;;;;15.45;6.68;;;;;;;19.02;53.72;98460.03;4503540;31;20438;-81
2022/11/08 10:44:06;;;;;;;17.35;8.02;;;;;;;18.61;55.21;98457.66;4501846;31;20095;-82
2022/11/08 10:46:37;;;;;;;15.95;7.62;;;;;;;18.56;55.77;98444.06;4503143;31;20091;-82
2022/11/08 10:49:12;;;;;;;16.35;7.62;;;;;;;19.14;53.08;98443.50;4503281;31;20088;-81
2022/11/08 10:51:39;;;;;;;15.50;7.22;;;;;;;18.31;54.97;98435.31;4504046;31;20073;-83
2022/11/08 10:54:06;;;;;;;17.23;8.43;;;;;;;17.91;57.93;98442.38;4504197;31;20137;-82
2022/11/08 10:56:53;;;;;;;17.70;7.30;;;;;;;18.31;58.22;98440.53;4505068;31;20063;-82
2022/11/08 10:59:30;;;;;;;15.15;7.65;;;;;;;18.60;55.67;98432.47;4505669;31;20110;-82
2022/11/08 11:01:57;;;;;;;16.62;7.47;;;;;;;18.83;54.92;98428.31;4506637;31;20545;-82
2022/11/08 11:04:30;;;;;;;18.08;8.38;;;;;;;18.61;56.35;98427.16;4503694;31;20106;-82
2022/11/08 11:07:25;;;;;;;18.23;7.70;;;;;;;18.15;57.51;98426.84;4503484;31;20084;-81
2022/11/08 11:09:52;;;;;;;18.17;7.95;;;;;;;18.15;57.90;98426.84;4502982;31;20434;-81
2022/11/08 11:12:19;;;;;;;14.85;6.90;;;;;;;19.08;55.42;98428.22;4502806;31;20114;-81
2022/11/08 11:14:55;;;;;;;18.20;8.48;;;;;;;19.67;52.74;98427.47;4503338;31;20168;-81
2022/11/08 11:17:26;;;;;;;17.12;7.87;;;;;;;18.72;56.65;98437.72;4503040;31;20453;-82
2022/11/08 11:19:54;;;;;;;17.10;7.55;;;;;;;17.95;58.33;98425.56;4502479;31;20102;-81
2022/11/08 11:22:32;;;;;;;18.23;9.10;;;;;;;17.97;58.45;98425.44;4503486;31;20079;-81
2022/11/08 11:25:12;;;;;;;17.55;8.77;;;;;;;18.29;58.98;98423.28;4503132;31;20161;-81
2022/11/08 11:27:40;;;;;;;16.40;7.60;;;;;;;18.86;57.40;98421.06;4503310;31;20449;-81
2022/11/08 11:30:20;;;;;;;17.92;8.27;;;;;;;19.00;57.04;98425.31;4503117;31;20095;-81
2022/11/08 11:33:11;;;;;;;16.95;7.82;;;;;;;19.47;55.44;98418.47;4503123;31;20144;-82
2022/11/08 11:35:55;;;;;;;17.55;8.43;;;;;;;19.20;54.90;98416.88;4503290;31;20457;-81
2022/11/08 11:38:34;;;;;;;17.35;8.65;;;;;;;18.66;56.79;98424.25;4501730;31;20160;-81
2022/11/08 11:41:07;;;;;;;15.95;7.78;;;;;;;18.75;56.42;98413.16;4503318;31;20084;-81
2022/11/08 11:43:45;;;;;;;17.87;7.50;;;;;;;18.54;57.13;98412.84;4502340;31;20102;-81
2022/11/08 11:46:22;;;;;;;15.63;7.68;;;;;;;19.09;55.78;98408.97;4502900;31;20088;-82
2022/11/08 11:48:56;;;;;;;15.48;7.55;;;;;;;19.33;53.75;98412.44;4502161;31;20092;-81
2022/11/08 11:51:26;;;;;;;15.32;7.18;;;;;;;19.34;54.60;98413.25;4501684;31;20106;-82
2022/11/08 11:53:53;;;;;;;14.60;7.10;;;;;;;19.23;53.61;98414.03;4502266;31;20080;-81
2022/11/08 11:56:44;;;;;;;14.55;6.90;;;;;;;17.97;57.47;98409.78;4502634;31;20112;-82
2022/11/08 11:59:50;;;;;;;15.63;6.65;;;;;;;18.37;56.19;98403.53;4502866;31;20100;-84
2022/11/08 12:02:42;;;;;;;16.42;7.37;;;;;;;18.47;56.50;98406.34;4504128;31;20092;-83
2022/11/08 12:05:30;;;;;;;15.73;7.87;;;;;;;17.80;58.12;98410.94;4502847;31;20080;-83